KECG/ECG METAR and TAF weather

Enter ICAO airport designator
Station Type Date Time Source
KECG METAR 2021/05/15 00:54 UTC NOAA

KECG 150054Z 10004KT 10SM CLR 15/04 A3024 RMK AO2 SLP239 T01500039


Station Type Date Time Source
KECG Decoded METAR 2021/05/15 00:54 UTC NOAA

ELIZABETH CITY C/G REGN AIRPORT , NC, United States (KECG) 36-15N 076-10W 11M
May 14, 2021 - 08:54 PM EDT / 2021.05.15 0054 UTC
Wind: from the E (100 degrees) at 5 MPH (4 KT):0
Visibility: 10 mile(s):0
Sky conditions: clear
Temperature: 59.0 F (15.0 C)
Dew Point: 39.0 F (3.9 C)
Relative Humidity: 47%
Pressure (altimeter): 30.24 in. Hg (1024 hPa)
ob: KECG 150054Z 10004KT 10SM CLR 15/04 A3024 RMK AO2 SLP239 T01500039
cycle: 1

Station Type Date Time Source
KECG TAF 2021/05/14 18:24 UTC NOAA

TAF KECG 141720Z 1418/1518 04010KT P6SM SCT070
FM150000 12005KT P6SM SKC
FM151300 01004KT P6SM SKC
FM151500 04006KT P6SM SKC
FM151700 08008KT P6SM SCT200

Example: see airport list